Time;durP1;ratioP1;P1;durP2;ratioP2;P2;SDS_P1;SDS_P2;PMS_P1;PMS_P2;Temp;Humidity;BMP_temperature;BMP_pressure;BME280_temperature;BME280_humidity;BME280_pressure;Samples;Min_cycle;Max_cycle;Signal;HPM_P1;HPM_P2
2021/12/08 00:00:27;;;;;;;5.25;0.90;;;;;;;13.21;nan;99273.41;1048814;28;20020;-67
2021/12/08 00:00:58;;;;;;;5.90;1.10;;;;;;;13.21;nan;99267.34;1052819;28;20070;-66
2021/12/08 00:01:29;;;;;;;3.10;1.13;;;;;;;13.21;nan;99281.16;1048584;28;20099;-66
2021/12/08 00:01:59;;;;;;;2.22;0.95;;;;;;;13.21;nan;99272.53;1049944;28;20407;-66
2021/12/08 00:02:29;;;;;;;4.00;1.30;;;;;;;13.20;nan;99271.69;1048644;28;20024;-67
2021/12/08 00:03:00;;;;;;;8.50;1.55;;;;;;;13.19;nan;99275.13;1044579;28;20013;-66
2021/12/08 00:03:31;;;;;;;2.25;0.75;;;;;;;13.20;nan;99266.50;1040514;28;20022;-66
2021/12/08 00:04:01;;;;;;;2.90;1.08;;;;;;;13.19;nan;99259.63;1040597;28;20018;-67
2021/12/08 00:04:31;;;;;;;3.90;1.27;;;;;;;13.17;nan;99262.25;1040441;28;20079;-66
2021/12/08 00:05:03;;;;;;;2.92;1.00;;;;;;;13.16;nan;99265.69;1044617;28;20470;-66
2021/12/08 00:05:34;;;;;;;4.50;1.40;;;;;;;13.16;nan;99252.75;1048743;28;20017;-66
2021/12/08 00:06:04;;;;;;;2.78;1.30;;;;;;;13.18;nan;99257.91;1049828;28;20368;-66
2021/12/08 00:06:35;;;;;;;2.83;1.10;;;;;;;13.17;nan;99248.44;1047899;28;20088;-66
2021/12/08 00:07:06;;;;;;;2.83;0.90;;;;;;;13.18;nan;99257.91;1046344;28;20443;-66
2021/12/08 00:07:36;;;;;;;3.55;1.10;;;;;;;13.17;nan;99254.47;1040321;28;20021;-66
2021/12/08 00:08:07;;;;;;;3.70;1.13;;;;;;;13.17;nan;99267.41;1036648;28;20033;-66
2021/12/08 00:08:38;;;;;;;2.05;0.88;;;;;;;13.16;nan;99265.69;1044555;28;20052;-66
2021/12/08 00:09:26;;;;;;;2.35;0.90;;;;;;;13.17;nan;99266.53;1044854;28;20028;-66
2021/12/08 00:10:05;;;;;;;2.88;1.15;;;;;;;13.16;nan;99249.31;1051541;28;20411;-66
2021/12/08 00:13:35;;;;;;;3.40;0.90;;;;;;;13.16;nan;99259.66;1053168;28;20063;-66
2021/12/08 00:14:05;;;;;;;2.92;1.10;;;;;;;13.16;nan;99257.06;1052788;28;20073;-66
2021/12/08 00:14:36;;;;;;;3.55;1.00;;;;;;;13.16;nan;99259.66;1052855;28;20024;-66
2021/12/08 00:15:06;;;;;;;2.47;1.20;;;;;;;13.15;nan;99258.81;1052893;28;20032;-67
2021/12/08 00:15:41;;;;;;;2.42;1.08;;;;;;;13.15;nan;99263.09;1052734;28;20020;-66
2021/12/08 00:16:12;;;;;;;5.90;1.20;;;;;;;13.14;nan;99256.25;1049326;28;20490;-66
2021/12/08 00:16:43;;;;;;;2.17;1.10;;;;;;;13.14;nan;99253.66;1052807;28;20481;-66
2021/12/08 00:17:13;;;;;;;3.13;1.00;;;;;;;13.14;nan;99248.50;1048610;28;20052;-67
2021/12/08 00:17:43;;;;;;;1.88;0.80;;;;;;;13.14;nan;99253.66;1048566;28;20036;-67
2021/12/08 00:18:15;;;;;;;2.05;0.95;;;;;;;13.13;nan;99254.53;1048702;28;20027;-67
2021/12/08 00:18:48;;;;;;;4.70;1.30;;;;;;;13.14;nan;99256.25;1048775;28;20054;-66
2021/12/08 00:19:18;;;;;;;3.70;1.20;;;;;;;13.12;nan;99253.66;1052830;28;20020;-66
2021/12/08 00:19:48;;;;;;;3.53;1.08;;;;;;;13.13;nan;99257.09;1052792;28;20020;-66
2021/12/08 00:20:19;;;;;;;2.80;1.08;;;;;;;13.13;nan;99259.69;1048675;28;20017;-66
2021/12/08 00:20:51;;;;;;;4.22;1.17;;;;;;;13.12;nan;99257.97;1044172;28;20479;-67
2021/12/08 00:21:25;;;;;;;7.60;1.58;;;;;;;13.13;nan;99254.53;1047902;28;20514;-67
2021/12/08 00:21:55;;;;;;;5.35;1.15;;;;;;;13.12;nan;99258.81;1053550;28;20023;-66
2021/12/08 00:22:25;;;;;;;2.50;1.05;;;;;;;13.11;nan;99251.09;1053612;28;20043;-67
2021/12/08 00:22:56;;;;;;;3.30;1.00;;;;;;;13.12;nan;99252.81;1052798;28;20463;-67
2021/12/08 00:23:27;;;;;;;2.53;1.17;;;;;;;13.12;nan;99247.63;1052817;28;20020;-67
2021/12/08 00:23:57;;;;;;;2.88;1.10;;;;;;;13.11;nan;99251.09;1052882;28;20485;-66
2021/12/08 00:24:27;;;;;;;3.25;0.90;;;;;;;13.11;nan;99240.75;1052927;28;20032;-67
2021/12/08 00:24:58;;;;;;;3.17;0.93;;;;;;;13.11;nan;99245.91;1056990;28;20065;-66
2021/12/08 00:25:29;;;;;;;2.78;0.90;;;;;;;13.10;nan;99257.13;1057215;28;20027;-67
2021/12/08 00:25:59;;;;;;;4.15;1.10;;;;;;;13.11;nan;99240.75;1052833;28;20020;-66
2021/12/08 00:26:30;;;;;;;3.17;1.02;;;;;;;13.10;nan;99233.88;1048761;28;20072;-66
2021/12/08 00:27:00;;;;;;;3.40;1.00;;;;;;;13.09;nan;99240.78;1044651;28;20013;-66
2021/12/08 00:27:31;;;;;;;2.35;1.10;;;;;;;13.11;nan;99243.34;1044748;28;20017;-67
2021/12/08 00:28:01;;;;;;;2.67;1.13;;;;;;;13.09;nan;99237.31;1048613;28;20016;-66
2021/12/08 00:28:31;;;;;;;3.55;1.00;;;;;;;13.09;nan;99242.50;1052837;28;20428;-66
2021/12/08 00:29:03;;;;;;;2.25;0.88;;;;;;;13.09;nan;99237.31;1053474;28;20024;-66
2021/12/08 00:29:33;;;;;;;2.80;1.02;;;;;;;13.09;nan;99242.50;1052730;28;20020;-67
2021/12/08 00:30:04;;;;;;;2.95;0.93;;;;;;;13.08;nan;99231.31;1052648;28;20020;-67
2021/12/08 00:30:36;;;;;;;3.17;0.93;;;;;;;13.09;nan;99242.50;1048482;28;20047;-66
2021/12/08 00:31:06;;;;;;;3.47;1.13;;;;;;;13.08;nan;99240.78;1044551;28;20051;-66
2021/12/08 00:31:36;;;;;;;2.55;1.13;;;;;;;13.08;nan;99245.94;1048688;28;20024;-66
2021/12/08 00:32:09;;;;;;;5.15;1.20;;;;;;;13.07;nan;99242.50;1048543;28;20020;-67
2021/12/08 00:32:39;;;;;;;3.47;1.17;;;;;;;13.06;nan;99242.53;1040943;28;20017;-67
2021/12/08 00:33:10;;;;;;;3.78;1.15;;;;;;;13.06;nan;99242.53;1049167;28;20067;-67
2021/12/08 00:33:40;;;;;;;3.60;1.02;;;;;;;13.07;nan;99257.19;1052829;28;20384;-66
2021/12/08 00:34:11;;;;;;;2.97;1.10;;;;;;;13.06;nan;99242.53;1053102;28;20027;-66
2021/12/08 00:34:41;;;;;;;3.00;1.20;;;;;;;13.04;nan;99249.44;1057075;28;20366;-66
2021/12/08 00:35:11;;;;;;;3.45;1.17;;;;;;;13.05;nan;99246.00;1056663;28;20031;-66
2021/12/08 00:35:44;;;;;;;2.78;1.20;;;;;;;13.05;nan;99246.00;1051075;28;20054;-67
2021/12/08 00:36:16;;;;;;;3.85;1.23;;;;;;;13.04;nan;99237.38;1044796;28;20419;-66
2021/12/08 00:36:50;;;;;;;2.78;1.10;;;;;;;13.04;nan;99245.13;1048670;28;20044;-66
2021/12/08 00:37:20;;;;;;;3.33;1.10;;;;;;;13.05;nan;99240.81;1052750;28;20073;-66
2021/12/08 00:37:51;;;;;;;2.83;1.00;;;;;;;13.03;nan;99238.22;1052887;28;20009;-66
2021/12/08 00:38:21;;;;;;;3.17;1.23;;;;;;;13.04;nan;99233.94;1052652;28;20487;-67
2021/12/08 00:38:51;;;;;;;2.72;1.10;;;;;;;13.04;nan;99233.94;1052292;28;20023;-67
2021/12/08 00:39:22;;;;;;;3.25;1.23;;;;;;;13.04;nan;99239.09;1048918;28;20521;-67
2021/12/08 00:39:52;;;;;;;2.92;1.00;;;;;;;13.02;nan;99239.97;1044355;28;20013;-66
2021/12/08 00:40:23;;;;;;;2.80;1.00;;;;;;;13.02;nan;99237.38;1048021;28;20013;-66
2021/12/08 00:40:53;;;;;;;3.65;1.20;;;;;;;13.01;nan;99233.09;1048538;28;20451;-67
2021/12/08 00:41:24;;;;;;;3.72;1.05;;;;;;;13.01;nan;99232.25;1048529;28;20064;-66
2021/12/08 00:41:54;;;;;;;2.60;0.90;;;;;;;13.02;nan;99242.56;1052827;28;20031;-66
2021/12/08 00:42:25;;;;;;;3.45;1.33;;;;;;;13.02;nan;99242.56;1056642;28;20088;-67
2021/12/08 00:42:55;;;;;;;2.42;1.10;;;;;;;13.01;nan;99230.50;1052885;28;20099;-67
2021/12/08 00:43:26;;;;;;;4.13;1.00;;;;;;;13.01;nan;99234.84;1052731;28;20491;-66
2021/12/08 00:43:56;;;;;;;2.60;1.02;;;;;;;13.01;nan;99222.75;1052816;28;20016;-67
2021/12/08 00:44:26;;;;;;;2.97;1.23;;;;;;;13.01;nan;99229.66;1048482;28;20024;-67
2021/12/08 00:44:58;;;;;;;1.90;0.85;;;;;;;13.01;nan;99230.50;1044449;28;20028;-67
2021/12/08 00:45:29;;;;;;;2.42;1.05;;;;;;;13.01;nan;99225.34;1036239;28;20080;-66
2021/12/08 00:45:59;;;;;;;2.50;0.98;;;;;;;13.01;nan;99225.34;1037248;28;20072;-66
2021/12/08 00:46:30;;;;;;;3.45;1.10;;;;;;;13.01;nan;99237.41;1046120;28;20028;-66
2021/12/08 00:47:00;;;;;;;2.67;1.05;;;;;;;13.01;nan;99235.69;1048586;28;20024;-66
2021/12/08 00:47:30;;;;;;;4.43;1.10;;;;;;;13.00;nan;99239.13;1048865;28;20024;-66
2021/12/08 00:48:01;;;;;;;3.47;1.30;;;;;;;13.00;nan;99235.69;1048873;28;20021;-67
2021/12/08 00:48:31;;;;;;;3.42;1.08;;;;;;;13.00;nan;99233.97;1044426;28;20021;-67
2021/12/08 00:49:02;;;;;;;1.63;0.80;;;;;;;12.99;nan;99232.25;1044358;28;20088;-66
2021/12/08 00:49:32;;;;;;;3.22;1.20;;;;;;;12.99;nan;99227.06;1044426;28;20021;-66
2021/12/08 00:50:04;;;;;;;3.13;1.20;;;;;;;13.00;nan;99228.78;1046418;28;20013;-67
2021/12/08 00:50:35;;;;;;;2.72;0.98;;;;;;;12.99;nan;99227.06;1052757;28;20016;-67
2021/12/08 00:51:06;;;;;;;2.58;1.10;;;;;;;12.99;nan;99221.91;1052713;28;20020;-66
2021/12/08 00:51:36;;;;;;;3.10;1.15;;;;;;;12.98;nan;99230.56;1052767;28;20015;-66
2021/12/08 00:52:07;;;;;;;3.47;1.30;;;;;;;12.99;nan;99232.25;1049754;28;20454;-67
2021/12/08 00:52:37;;;;;;;3.22;1.15;;;;;;;12.98;nan;99240.91;1048473;28;20027;-66
2021/12/08 00:53:08;;;;;;;3.72;1.17;;;;;;;12.99;nan;99233.97;1044505;28;20095;-66
2021/12/08 00:53:38;;;;;;;3.10;1.13;;;;;;;12.99;nan;99236.56;1040222;28;20035;-67
2021/12/08 00:54:08;;;;;;;3.30;0.98;;;;;;;12.97;nan;99228.84;1040315;28;20028;-66
2021/12/08 00:54:39;;;;;;;2.70;1.00;;;;;;;12.98;nan;99232.25;1044366;28;20033;-66
2021/12/08 00:55:11;;;;;;;3.25;1.20;;;;;;;12.96;nan;99237.47;1044419;28;20033;-66
2021/12/08 00:55:41;;;;;;;1.98;0.95;;;;;;;12.97;nan;99233.13;1044404;28;20522;-66
2021/12/08 00:56:12;;;;;;;4.20;1.58;;;;;;;12.95;nan;99233.16;1040574;28;20473;-66
2021/12/08 00:56:43;;;;;;;4.40;1.30;;;;;;;12.95;nan;99235.75;1044399;28;20280;-66
2021/12/08 00:57:14;;;;;;;2.97;1.10;;;;;;;12.94;nan;99236.63;1044574;28;20043;-66
2021/12/08 00:57:44;;;;;;;3.17;1.27;;;;;;;12.94;nan;99241.78;1048787;28;20024;-67
2021/12/08 00:58:15;;;;;;;3.08;1.13;;;;;;;12.94;nan;99236.63;1052456;28;20016;-67
2021/12/08 00:58:45;;;;;;;3.15;1.15;;;;;;;12.92;nan;99235.75;1044575;28;20462;-66
2021/12/08 00:59:16;;;;;;;2.30;0.90;;;;;;;12.93;nan;99236.63;1051011;28;20040;-66
2021/12/08 00:59:46;;;;;;;2.85;1.02;;;;;;;12.92;nan;99240.94;1052201;28;20027;-66
2021/12/08 01:00:28;;;;;;;3.70;1.10;;;;;;;12.92;nan;99235.75;1052538;28;20024;-66
2021/12/08 01:00:58;;;;;;;2.20;1.00;;;;;;;12.93;nan;99237.47;1052773;28;20035;-67
2021/12/08 01:01:29;;;;;;;4.32;1.10;;;;;;;12.93;nan;99236.63;1052980;28;20027;-66
2021/12/08 01:02:02;;;;;;;2.45;1.00;;;;;;;12.92;nan;99230.59;1053008;28;20024;-66
2021/12/08 01:02:33;;;;;;;2.53;1.02;;;;;;;12.92;nan;99230.59;1053013;28;20016;-66
2021/12/08 01:03:03;;;;;;;3.00;1.13;;;;;;;12.92;nan;99228.00;1053863;28;20020;-67
2021/12/08 01:03:35;;;;;;;3.30;1.25;;;;;;;12.92;nan;99220.25;1056976;28;20363;-66
2021/12/08 01:04:06;;;;;;;3.42;1.10;;;;;;;12.91;nan;99223.75;1056910;28;20106;-66
2021/12/08 01:04:36;;;;;;;2.75;1.10;;;;;;;12.93;nan;99226.31;1056988;28;20493;-67
2021/12/08 01:05:11;;;;;;;2.53;1.20;;;;;;;12.92;nan;99230.59;1052584;28;20509;-66
2021/12/08 01:05:47;;;;;;;4.15;1.15;;;;;;;12.92;nan;99224.59;1052815;28;20110;-66
2021/12/08 01:06:17;;;;;;;3.10;1.30;;;;;;;12.91;nan;99223.75;1048508;28;20517;-67
2021/12/08 01:06:48;;;;;;;3.25;1.20;;;;;;;12.91;nan;99231.50;1049892;28;20521;-66
2021/12/08 01:07:18;;;;;;;3.30;1.00;;;;;;;12.91;nan;99218.56;1052694;28;20375;-67
2021/12/08 01:07:48;;;;;;;3.97;1.17;;;;;;;12.91;nan;99208.22;1052761;28;20020;-67
2021/12/08 01:08:21;;;;;;;3.10;1.02;;;;;;;12.91;nan;99213.41;1056967;28;20095;-67
2021/12/08 01:08:51;;;;;;;3.33;1.00;;;;;;;12.92;nan;99207.34;1054144;28;20115;-67
2021/12/08 01:09:22;;;;;;;3.92;1.40;;;;;;;12.92;nan;99225.44;1056492;28;20020;-67
2021/12/08 01:09:52;;;;;;;4.60;1.17;;;;;;;12.92;nan;99220.25;1057087;28;20027;-66
2021/12/08 01:10:24;;;;;;;1.92;1.08;;;;;;;12.92;nan;99222.84;1057157;28;20031;-66
2021/12/08 01:10:55;;;;;;;3.55;1.30;;;;;;;12.93;nan;99215.97;1057213;28;20019;-67
2021/12/08 01:11:26;;;;;;;3.58;1.27;;;;;;;12.92;nan;99230.59;1056784;28;20460;-66
2021/12/08 01:11:57;;;;;;;6.07;1.63;;;;;;;12.92;nan;99225.44;1056788;28;20515;-66
2021/12/08 01:12:28;;;;;;;3.53;1.30;;;;;;;12.91;nan;99228.91;1056913;28;20027;-66
2021/12/08 01:12:58;;;;;;;2.75;1.30;;;;;;;12.91;nan;99231.50;1056499;28;20012;-67
2021/12/08 01:13:29;;;;;;;2.67;1.30;;;;;;;12.91;nan;99228.91;1052581;28;20020;-67
2021/12/08 01:13:59;;;;;;;2.72;1.00;;;;;;;12.91;nan;99230.63;1052620;28;20485;-66
2021/12/08 01:14:30;;;;;;;3.38;1.20;;;;;;;12.91;nan;99228.91;1052651;28;20032;-66
2021/12/08 01:15:00;;;;;;;4.20;1.35;;;;;;;12.91;nan;99233.19;1052616;28;20023;-66
2021/12/08 01:15:31;;;;;;;2.58;1.20;;;;;;;12.90;nan;99229.78;1052955;28;20016;-66
2021/12/08 01:16:01;;;;;;;3.67;0.95;;;;;;;12.91;nan;99223.75;1048405;28;20028;-66
2021/12/08 01:16:32;;;;;;;3.20;1.10;;;;;;;12.91;nan;99228.03;1048431;28;20016;-66
2021/12/08 01:17:03;;;;;;;2.85;1.17;;;;;;;12.90;nan;99216.84;1049217;28;20467;-66
2021/12/08 01:17:33;;;;;;;2.72;1.00;;;;;;;12.90;nan;99227.19;1048432;28;20490;-66
2021/12/08 01:18:03;;;;;;;4.22;1.38;;;;;;;12.89;nan;99225.47;1052579;28;20031;-67
2021/12/08 01:18:34;;;;;;;4.15;1.20;;;;;;;12.90;nan;99221.16;1052677;28;20022;-67
2021/12/08 01:19:04;;;;;;;2.92;1.10;;;;;;;12.91;nan;99217.69;1056888;28;20038;-66
2021/12/08 01:19:34;;;;;;;2.60;1.23;;;;;;;12.91;nan;99222.88;1057184;28;20019;-66
2021/12/08 01:20:06;;;;;;;2.97;1.15;;;;;;;12.90;nan;99216.84;1056749;28;20135;-66
2021/12/08 01:20:36;;;;;;;3.08;1.00;;;;;;;12.90;nan;99222.03;1052565;28;20016;-66
2021/12/08 01:21:08;;;;;;;3.47;1.13;;;;;;;12.89;nan;99220.31;1052675;28;20438;-66
2021/12/08 01:21:38;;;;;;;2.55;1.00;;;;;;;12.90;nan;99223.72;1048437;28;20070;-66
2021/12/08 01:22:08;;;;;;;5.10;1.48;;;;;;;12.88;nan;99223.75;1042757;28;20025;-66
2021/12/08 01:22:39;;;;;;;2.78;1.00;;;;;;;12.88;nan;99231.50;1044270;28;20484;-66
2021/12/08 01:23:09;;;;;;;3.67;1.35;;;;;;;12.87;nan;99224.63;1044683;28;20024;-67
2021/12/08 01:23:40;;;;;;;2.95;1.27;;;;;;;12.87;nan;99232.38;1044338;28;20045;-66
2021/12/08 01:24:10;;;;;;;4.40;1.38;;;;;;;12.87;nan;99222.03;1048462;28;20024;-66
2021/12/08 01:24:40;;;;;;;4.00;1.35;;;;;;;12.87;nan;99227.22;1048437;28;20043;-66
2021/12/08 01:25:11;;;;;;;3.97;1.38;;;;;;;12.86;nan;99225.50;1043194;28;20442;-66
2021/12/08 01:25:41;;;;;;;2.70;1.17;;;;;;;12.86;nan;99220.31;1048350;28;20035;-66
2021/12/08 01:26:12;;;;;;;2.42;1.00;;;;;;;12.86;nan;99215.16;1044148;28;20492;-66
2021/12/08 01:26:42;;;;;;;2.38;1.38;;;;;;;12.84;nan;99222.94;1040179;28;20028;-66
2021/12/08 01:27:12;;;;;;;4.50;1.27;;;;;;;12.84;nan;99211.75;1044225;28;20542;-66
2021/12/08 01:27:43;;;;;;;2.72;0.93;;;;;;;12.84;nan;99219.50;1044435;28;20017;-66
2021/12/08 01:28:14;;;;;;;2.53;1.10;;;;;;;12.84;nan;99222.94;1048347;28;20024;-66
2021/12/08 01:28:44;;;;;;;2.75;1.20;;;;;;;12.84;nan;99227.25;1048744;28;20372;-66
2021/12/08 01:29:15;;;;;;;4.15;1.23;;;;;;;12.84;nan;99227.25;1048405;28;20379;-66
2021/12/08 01:29:48;;;;;;;4.10;1.35;;;;;;;12.84;nan;99227.25;1048507;28;20025;-66
2021/12/08 01:30:18;;;;;;;3.35;1.15;;;;;;;12.83;nan;99235.88;1048247;28;20025;-66
2021/12/08 01:30:50;;;;;;;3.80;1.40;;;;;;;12.84;nan;99237.59;1048384;28;20453;-67
2021/12/08 01:31:21;;;;;;;2.58;1.25;;;;;;;12.85;nan;99231.53;1044935;28;20012;-66
2021/12/08 01:31:51;;;;;;;3.53;0.90;;;;;;;12.84;nan;99233.28;1048458;28;20016;-66
2021/12/08 01:32:22;;;;;;;4.03;1.20;;;;;;;12.84;nan;99230.69;1051936;28;20471;-66
2021/12/08 01:32:53;;;;;;;3.47;1.02;;;;;;;12.84;nan;99228.09;1052555;28;20016;-66
2021/12/08 01:33:24;;;;;;;3.63;1.30;;;;;;;12.85;nan;99239.28;1056695;28;20039;-67
2021/12/08 01:33:55;;;;;;;3.65;1.08;;;;;;;12.83;nan;99226.38;1052468;28;20107;-66
2021/12/08 01:34:25;;;;;;;3.40;1.30;;;;;;;12.83;nan;99222.97;1044140;28;20025;-66
2021/12/08 01:34:55;;;;;;;5.28;1.58;;;;;;;12.83;nan;99225.53;1044112;28;20024;-66
2021/12/08 01:35:26;;;;;;;3.33;1.10;;;;;;;12.82;nan;99229.00;1044397;28;20032;-66
2021/12/08 01:35:56;;;;;;;3.65;1.33;;;;;;;12.81;nan;99224.69;1052631;28;20039;-66
2021/12/08 01:36:27;;;;;;;2.50;1.20;;;;;;;12.81;nan;99227.28;1056328;28;20476;-66
2021/12/08 01:36:57;;;;;;;3.42;1.33;;;;;;;12.81;nan;99219.53;1052953;28;20035;-66
2021/12/08 01:37:27;;;;;;;3.42;1.30;;;;;;;12.81;nan;99222.13;1056986;27;20390;-66
2021/12/08 01:37:58;;;;;;;3.65;1.00;;;;;;;12.81;nan;99214.34;1056776;28;20068;-66
2021/12/08 01:38:28;;;;;;;3.75;1.30;;;;;;;12.81;nan;99222.97;1052821;28;20024;-66
2021/12/08 01:38:59;;;;;;;4.95;1.30;;;;;;;12.82;nan;99226.41;1053192;28;20024;-67
2021/12/08 01:39:29;;;;;;;3.20;1.52;;;;;;;12.83;nan;99222.97;1056865;28;20024;-67
2021/12/08 01:39:59;;;;;;;3.15;1.10;;;;;;;12.82;nan;99229.00;1056269;28;20027;-67
2021/12/08 01:40:30;;;;;;;3.75;1.25;;;;;;;12.81;nan;99222.97;1048443;28;20490;-67
2021/12/08 01:41:00;;;;;;;3.25;1.10;;;;;;;12.83;nan;99217.78;1048308;28;20028;-66
2021/12/08 01:41:31;;;;;;;3.63;1.45;;;;;;;12.83;nan;99230.72;1048401;28;20020;-67
2021/12/08 01:42:01;;;;;;;3.60;1.33;;;;;;;12.82;nan;99224.66;1052518;28;20024;-67
2021/12/08 01:42:36;;;;;;;4.80;1.20;;;;;;;12.82;nan;99234.16;1052591;28;20146;-67
2021/12/08 01:43:12;;;;;;;3.45;1.20;;;;;;;12.83;nan;99228.13;1052727;28;20024;-67
2021/12/08 01:46:21;;;;;;;3.22;1.42;;;;;;;12.81;nan;99229.88;1035905;28;20436;-66
2021/12/08 01:46:53;;;;;;;3.97;1.20;;;;;;;12.82;nan;99231.59;1035839;28;20032;-66
2021/12/08 01:47:23;;;;;;;3.10;1.42;;;;;;;12.80;nan;99230.72;1040992;28;20049;-66
2021/12/08 01:47:53;;;;;;;2.80;1.20;;;;;;;12.80;nan;99235.91;1051296;28;20015;-66
2021/12/08 01:48:24;;;;;;;2.67;0.90;;;;;;;12.80;nan;99230.72;1048214;28;20039;-66
2021/12/08 01:48:55;;;;;;;3.78;1.40;;;;;;;12.78;nan;99228.16;1048391;28;20017;-66
2021/12/08 01:49:25;;;;;;;2.70;1.05;;;;;;;12.79;nan;99223.84;1048215;28;20423;-66
2021/12/08 01:49:55;;;;;;;4.30;1.50;;;;;;;12.79;nan;99226.44;1048648;28;20028;-66
2021/12/08 01:50:26;;;;;;;4.72;1.40;;;;;;;12.79;nan;99226.44;1040063;28;20052;-66
2021/12/08 01:51:05;;;;;;;4.57;1.48;;;;;;;12.79;nan;99229.00;1040105;28;20017;-66
2021/12/08 01:51:35;;;;;;;2.45;1.00;;;;;;;12.77;nan;99228.19;1035992;28;20022;-66
2021/12/08 01:52:06;;;;;;;4.45;0.98;;;;;;;12.78;nan;99211.78;1039825;28;20025;-66
2021/12/08 01:52:37;;;;;;;3.13;1.42;;;;;;;12.78;nan;99216.97;1048337;28;20025;-67
2021/12/08 01:53:07;;;;;;;3.47;1.20;;;;;;;12.77;nan;99218.69;1049786;28;20024;-66
2021/12/08 01:53:39;;;;;;;2.38;1.00;;;;;;;12.77;nan;99230.78;1052773;28;20024;-66
2021/12/08 01:54:09;;;;;;;3.78;1.27;;;;;;;12.77;nan;99233.38;1052407;28;20485;-66
2021/12/08 01:54:39;;;;;;;4.20;1.42;;;;;;;12.76;nan;99231.66;1052491;28;20027;-66
2021/12/08 01:55:10;;;;;;;3.67;1.27;;;;;;;12.76;nan;99247.16;1052528;28;20032;-66
2021/12/08 01:55:40;;;;;;;2.80;1.10;;;;;;;12.75;nan;99242.84;1052528;28;20034;-66
2021/12/08 01:56:11;;;;;;;4.63;1.30;;;;;;;12.76;nan;99244.56;1052487;28;20061;-67
2021/12/08 01:56:41;;;;;;;6.05;1.52;;;;;;;12.74;nan;99243.72;1052836;28;20028;-66
2021/12/08 01:57:11;;;;;;;5.00;1.40;;;;;;;12.72;nan;99246.31;1054567;28;20016;-66
2021/12/08 01:57:42;;;;;;;3.13;1.30;;;;;;;12.72;nan;99237.69;1056645;28;20062;-66
2021/12/08 01:58:13;;;;;;;3.85;1.30;;;;;;;12.70;nan;99241.16;1051236;28;20530;-66
2021/12/08 01:58:43;;;;;;;3.83;1.45;;;;;;;12.69;nan;99238.59;1052641;28;20022;-66
2021/12/08 01:59:13;;;;;;;3.80;1.40;;;;;;;12.69;nan;99239.47;1056733;28;20429;-66
2021/12/08 01:59:44;;;;;;;3.15;1.48;;;;;;;12.68;nan;99242.91;1048317;28;20016;-66
2021/12/08 02:00:30;;;;;;;2.92;1.38;;;;;;;12.68;nan;99244.63;1049990;28;20456;-66
2021/12/08 02:01:03;;;;;;;2.17;1.08;;;;;;;12.68;nan;99237.75;1048332;28;20055;-66
2021/12/08 02:01:35;;;;;;;3.15;1.20;;;;;;;12.68;nan;99235.16;1050953;28;20445;-66
2021/12/08 02:02:05;;;;;;;3.45;1.20;;;;;;;12.69;nan;99239.47;1049005;28;20040;-67
2021/12/08 02:02:36;;;;;;;2.35;0.82;;;;;;;12.69;nan;99238.59;1045015;28;20021;-66
2021/12/08 02:03:06;;;;;;;2.42;1.00;;;;;;;12.69;nan;99234.28;1039975;28;20095;-66
2021/12/08 02:03:37;;;;;;;3.13;1.20;;;;;;;12.69;nan;99244.63;1039820;28;20013;-66
2021/12/08 02:04:07;;;;;;;4.20;1.38;;;;;;;12.67;nan;99241.19;1039746;28;20482;-67
2021/12/08 02:04:38;;;;;;;2.80;1.20;;;;;;;12.68;nan;99232.59;1040151;28;20398;-66
2021/12/08 02:05:08;;;;;;;2.97;1.15;;;;;;;12.67;nan;99240.31;1044271;28;20025;-66
2021/12/08 02:05:39;;;;;;;3.83;1.23;;;;;;;12.68;nan;99232.59;1044202;28;20399;-66
2021/12/08 02:06:10;;;;;;;4.85;1.15;;;;;;;12.67;nan;99230.88;1048232;28;20086;-66
2021/12/08 02:06:43;;;;;;;3.80;1.23;;;;;;;12.67;nan;99230.88;1044409;28;20021;-66
2021/12/08 02:07:14;;;;;;;2.85;1.25;;;;;;;12.67;nan;99236.03;1048356;28;20074;-66
2021/12/08 02:07:44;;;;;;;3.60;1.23;;;;;;;12.68;nan;99224.84;1044170;28;20028;-66
2021/12/08 02:08:14;;;;;;;4.65;1.30;;;;;;;12.68;nan;99232.59;1047095;28;20048;-66
2021/12/08 02:08:46;;;;;;;4.07;1.40;;;;;;;12.68;nan;99240.34;1044005;28;20112;-66
2021/12/08 02:09:17;;;;;;;2.40;1.05;;;;;;;12.69;nan;99241.19;1037023;28;20017;-66
2021/12/08 02:09:47;;;;;;;4.03;1.50;;;;;;;12.69;nan;99238.59;1040223;28;20017;-66
2021/12/08 02:10:17;;;;;;;3.17;1.10;;;;;;;12.70;nan;99238.56;1044449;28;20032;-66
2021/12/08 02:10:48;;;;;;;3.65;1.20;;;;;;;12.70;nan;99235.13;1052504;28;20058;-66
2021/12/08 02:11:20;;;;;;;3.85;1.30;;;;;;;12.69;nan;99239.47;1048821;28;20048;-66
2021/12/08 02:11:54;;;;;;;6.88;1.50;;;;;;;12.70;nan;99235.97;1049135;28;20490;-66
2021/12/08 02:12:25;;;;;;;2.75;1.48;;;;;;;12.70;nan;99232.56;1049135;28;20024;-66
2021/12/08 02:12:55;;;;;;;4.90;1.60;;;;;;;12.69;nan;99229.13;1050002;28;20399;-66
2021/12/08 02:13:27;;;;;;;2.63;1.02;;;;;;;12.70;nan;99235.13;1053360;28;20031;-66
2021/12/08 02:14:01;;;;;;;2.80;1.10;;;;;;;12.69;nan;99238.59;1053687;28;20024;-66
2021/12/08 02:14:32;;;;;;;2.13;1.27;;;;;;;12.69;nan;99242.06;1047304;28;20364;-66
2021/12/08 02:15:04;;;;;;;2.78;1.00;;;;;;;12.68;nan;99245.50;1044817;28;20021;-66
2021/12/08 02:15:36;;;;;;;4.65;1.48;;;;;;;12.69;nan;99238.59;1044993;28;20492;-66
2021/12/08 02:16:10;;;;;;;3.53;1.35;;;;;;;12.68;nan;99237.75;1047067;28;20032;-66
2021/12/08 02:16:40;;;;;;;3.92;1.33;;;;;;;12.68;nan;99234.28;1053185;28;20016;-66
2021/12/08 02:17:11;;;;;;;4.28;1.30;;;;;;;12.67;nan;99233.44;1053381;28;20031;-66
2021/12/08 02:17:41;;;;;;;3.60;1.10;;;;;;;12.68;nan;99229.13;1045016;28;20017;-66
2021/12/08 02:18:14;;;;;;;4.40;1.15;;;;;;;12.67;nan;99236.03;1040901;28;20026;-66
2021/12/08 02:18:47;;;;;;;3.28;1.30;;;;;;;12.67;nan;99236.03;1040800;28;20507;-66
2021/12/08 02:19:17;;;;;;;3.78;1.20;;;;;;;12.65;nan;99242.94;1042260;28;20083;-66
2021/12/08 02:19:48;;;;;;;4.63;1.20;;;;;;;12.65;nan;99237.75;1049807;28;20036;-66
2021/12/08 02:20:18;;;;;;;2.97;1.17;;;;;;;12.65;nan;99240.34;1044808;28;20021;-66
2021/12/08 02:20:49;;;;;;;3.25;1.30;;;;;;;12.64;nan;99241.22;1044839;28;20021;-66
2021/12/08 02:21:24;;;;;;;3.53;1.30;;;;;;;12.63;nan;99242.09;1045012;28;20021;-66
2021/12/08 02:21:54;;;;;;;3.53;1.10;;;;;;;12.62;nan;99248.13;1046486;28;20032;-66
2021/12/08 02:22:24;;;;;;;4.28;1.45;;;;;;;12.61;nan;99254.19;1053323;28;20027;-66
2021/12/08 02:22:55;;;;;;;3.40;1.38;;;;;;;12.60;nan;99247.28;1044994;28;20025;-66
2021/12/08 02:23:25;;;;;;;3.05;1.40;;;;;;;12.59;nan;99248.16;1044884;28;20100;-66
2021/12/08 02:23:58;;;;;;;2.53;1.23;;;;;;;12.60;nan;99249.00;1040855;28;20380;-66
2021/12/08 02:24:28;;;;;;;3.00;1.42;;;;;;;12.59;nan;99247.28;1041113;28;20035;-66
2021/12/08 02:24:59;;;;;;;2.78;1.20;;;;;;;12.56;nan;99243.00;1045358;28;20024;-66
2021/12/08 02:25:29;;;;;;;3.17;1.30;;;;;;;12.57;nan;99243.88;1046732;28;20021;-66
2021/12/08 02:25:59;;;;;;;3.63;1.20;;;;;;;12.56;nan;99237.84;1053124;28;20070;-66
2021/12/08 02:26:30;;;;;;;4.25;1.60;;;;;;;12.56;nan;99237.84;1053245;28;20034;-66
2021/12/08 02:27:00;;;;;;;4.82;1.45;;;;;;;12.55;nan;99230.97;1049087;28;20028;-66
2021/12/08 02:27:33;;;;;;;3.22;1.20;;;;;;;12.55;nan;99241.28;1048986;28;20028;-66
2021/12/08 02:28:04;;;;;;;2.92;1.30;;;;;;;12.53;nan;99230.97;1049139;28;20100;-66
2021/12/08 02:28:34;;;;;;;3.35;1.20;;;;;;;12.54;nan;99231.84;1045360;28;20025;-66
2021/12/08 02:29:09;;;;;;;3.90;1.20;;;;;;;12.55;nan;99236.13;1049051;28;20021;-66
2021/12/08 02:29:51;;;;;;;3.47;1.15;;;;;;;12.56;nan;99232.69;1044982;28;20099;-66
2021/12/08 02:30:59;;;;;;;2.35;0.85;;;;;;;12.58;nan;99225.78;1048982;28;20033;-66
2021/12/08 02:31:45;;;;;;;2.88;1.08;;;;;;;12.57;nan;99224.06;1049227;28;20089;-66
2021/12/08 02:46:35;;;;;;;2.45;1.13;;;;;;;12.57;nan;99224.06;1054905;28;20039;-66
2021/12/08 02:47:15;;;;;;;2.45;1.20;;;;;;;12.56;nan;99232.69;1057431;28;20086;-66
2021/12/08 02:47:53;;;;;;;2.42;0.98;;;;;;;12.58;nan;99245.59;1057509;28;20026;-66
2021/12/08 02:48:25;;;;;;;2.35;1.00;;;;;;;12.55;nan;99243.88;1057221;28;20019;-66
2021/12/08 02:48:56;;;;;;;4.63;1.40;;;;;;;12.56;nan;99242.16;1049078;28;20425;-66
2021/12/08 02:49:26;;;;;;;3.67;1.15;;;;;;;12.57;nan;99254.22;1044885;28;20446;-67
2021/12/08 02:49:56;;;;;;;2.90;1.10;;;;;;;12.55;nan;99246.47;1045071;28;20541;-67
2021/12/08 02:50:37;;;;;;;2.97;1.10;;;;;;;12.55;nan;99251.63;1048363;28;20024;-66
2021/12/08 02:51:07;;;;;;;5.85;1.27;;;;;;;12.55;nan;99246.47;1047992;28;20020;-66
2021/12/08 02:51:38;;;;;;;3.42;1.20;;;;;;;12.55;nan;99246.47;1048849;28;20099;-66